Terminal Aerodrome Forecast
Issued by NWS

Home | Current Version | Previous Version | Text Only | Print | Product List | Glossary On
Versions: 1 2 3 4 5 6 7 8 9 10 11 12 13 14 15
000
FTUS42 KTAE 051125 AAA
TAFDHN
TAF AMD
KDHN 051125Z 0511/0612 00000KT 5SM BR SCT250
     FM051400 30004KT P6SM SCT040
     FM051800 07006KT P6SM VCTS SCT040CB
     FM060100 00000KT P6SM BKN250=

USA.gov is the U.S. government's official web portal to all federal, state and local government web resources and services.